sensor_id;sensor_type;location;lat;lon;timestamp;P1;durP1;ratioP1;P2;durP2;ratioP2
69627;SDS011;56850;51.984;5.088;2022-07-04T00:00:16;9.05;;;3.92;;
69627;SDS011;56850;51.984;5.088;2022-07-04T00:02:44;7.37;;;3.90;;
69627;SDS011;56850;51.984;5.088;2022-07-04T00:05:12;6.10;;;4.03;;
69627;SDS011;56850;51.984;5.088;2022-07-04T00:07:41;7.47;;;3.88;;
69627;SDS011;56850;51.984;5.088;2022-07-04T00:10:18;7.28;;;3.60;;
69627;SDS011;56850;51.984;5.088;2022-07-04T00:12:48;8.00;;;3.65;;
69627;SDS011;56850;51.984;5.088;2022-07-04T00:15:16;8.60;;;3.67;;
69627;SDS011;56850;51.984;5.088;2022-07-04T00:17:43;5.65;;;3.33;;
69627;SDS011;56850;51.984;5.088;2022-07-04T00:20:11;7.50;;;3.50;;
69627;SDS011;56850;51.984;5.088;2022-07-04T00:22:38;6.78;;;3.45;;
69627;SDS011;56850;51.984;5.088;2022-07-04T00:25:05;6.28;;;3.30;;
69627;SDS011;56850;51.984;5.088;2022-07-04T00:27:32;10.10;;;3.73;;
69627;SDS011;56850;51.984;5.088;2022-07-04T00:30:00;6.95;;;3.67;;
69627;SDS011;56850;51.984;5.088;2022-07-04T00:32:27;7.05;;;3.50;;
69627;SDS011;56850;51.984;5.088;2022-07-04T00:34:54;6.80;;;3.80;;
69627;SDS011;56850;51.984;5.088;2022-07-04T00:37:22;8.50;;;3.53;;
69627;SDS011;56850;51.984;5.088;2022-07-04T00:39:49;7.18;;;3.75;;
69627;SDS011;56850;51.984;5.088;2022-07-04T00:42:16;6.63;;;4.20;;
69627;SDS011;56850;51.984;5.088;2022-07-04T00:44:43;5.28;;;3.85;;
69627;SDS011;56850;51.984;5.088;2022-07-04T00:47:10;8.52;;;4.22;;
69627;SDS011;56850;51.984;5.088;2022-07-04T00:49:37;6.97;;;3.85;;
69627;SDS011;56850;51.984;5.088;2022-07-04T00:52:06;7.18;;;4.63;;
69627;SDS011;56850;51.984;5.088;2022-07-04T00:54:34;9.18;;;5.63;;
69627;SDS011;56850;51.984;5.088;2022-07-04T00:57:01;8.77;;;6.10;;
69627;SDS011;56850;51.984;5.088;2022-07-04T00:59:28;8.82;;;5.55;;
69627;SDS011;56850;51.984;5.088;2022-07-04T01:01:55;10.82;;;5.75;;
69627;SDS011;56850;51.984;5.088;2022-07-04T01:04:23;8.00;;;5.50;;
69627;SDS011;56850;51.984;5.088;2022-07-04T01:06:51;9.35;;;5.57;;
69627;SDS011;56850;51.984;5.088;2022-07-04T01:09:19;8.48;;;5.53;;
69627;SDS011;56850;51.984;5.088;2022-07-04T01:11:48;8.45;;;5.90;;
69627;SDS011;56850;51.984;5.088;2022-07-04T01:14:17;8.95;;;5.32;;
69627;SDS011;56850;51.984;5.088;2022-07-04T01:16:44;8.60;;;5.87;;
69627;SDS011;56850;51.984;5.088;2022-07-04T01:19:11;8.88;;;5.75;;
69627;SDS011;56850;51.984;5.088;2022-07-04T01:21:38;7.35;;;5.50;;
69627;SDS011;56850;51.984;5.088;2022-07-04T01:24:05;7.85;;;5.68;;
69627;SDS011;56850;51.984;5.088;2022-07-04T01:26:32;10.43;;;5.75;;
69627;SDS011;56850;51.984;5.088;2022-07-04T01:28:59;10.57;;;5.50;;
69627;SDS011;56850;51.984;5.088;2022-07-04T01:31:27;9.35;;;5.45;;
69627;SDS011;56850;51.984;5.088;2022-07-04T01:33:54;7.85;;;5.20;;
69627;SDS011;56850;51.984;5.088;2022-07-04T01:36:21;10.20;;;5.07;;
69627;SDS011;56850;51.984;5.088;2022-07-04T01:38:48;7.85;;;5.13;;
69627;SDS011;56850;51.984;5.088;2022-07-04T01:41:15;7.00;;;5.30;;
69627;SDS011;56850;51.984;5.088;2022-07-04T01:43:42;10.63;;;4.70;;
69627;SDS011;56850;51.984;5.088;2022-07-04T01:46:09;8.75;;;5.15;;
69627;SDS011;56850;51.984;5.088;2022-07-04T01:48:36;6.18;;;3.80;;
69627;SDS011;56850;51.984;5.088;2022-07-04T01:51:03;9.35;;;4.68;;
69627;SDS011;56850;51.984;5.088;2022-07-04T01:53:30;7.63;;;4.80;;
69627;SDS011;56850;51.984;5.088;2022-07-04T01:55:57;10.02;;;3.85;;
69627;SDS011;56850;51.984;5.088;2022-07-04T01:58:24;7.63;;;4.45;;
69627;SDS011;56850;51.984;5.088;2022-07-04T02:00:50;8.65;;;4.78;;
69627;SDS011;56850;51.984;5.088;2022-07-04T02:03:36;7.70;;;4.28;;
69627;SDS011;56850;51.984;5.088;2022-07-04T02:06:03;5.43;;;4.22;;
69627;SDS011;56850;51.984;5.088;2022-07-04T02:08:30;10.18;;;4.32;;
69627;SDS011;56850;51.984;5.088;2022-07-04T02:11:17;6.70;;;4.30;;
69627;SDS011;56850;51.984;5.088;2022-07-04T02:13:44;7.93;;;4.47;;
69627;SDS011;56850;51.984;5.088;2022-07-04T02:16:11;7.40;;;4.50;;
69627;SDS011;56850;51.984;5.088;2022-07-04T02:18:38;8.83;;;4.53;;
69627;SDS011;56850;51.984;5.088;2022-07-04T02:21:05;6.50;;;4.53;;
69627;SDS011;56850;51.984;5.088;2022-07-04T02:23:32;6.40;;;4.20;;
69627;SDS011;56850;51.984;5.088;2022-07-04T02:25:59;11.73;;;4.82;;
69627;SDS011;56850;51.984;5.088;2022-07-04T02:28:26;7.22;;;4.13;;
69627;SDS011;56850;51.984;5.088;2022-07-04T02:30:53;13.60;;;4.60;;
69627;SDS011;56850;51.984;5.088;2022-07-04T02:33:20;6.45;;;4.57;;
69627;SDS011;56850;51.984;5.088;2022-07-04T02:35:47;6.95;;;4.45;;
69627;SDS011;56850;51.984;5.088;2022-07-04T02:38:14;4.85;;;3.90;;
69627;SDS011;56850;51.984;5.088;2022-07-04T02:40:40;6.30;;;4.80;;
69627;SDS011;56850;51.984;5.088;2022-07-04T02:43:07;9.13;;;4.27;;
69627;SDS011;56850;51.984;5.088;2022-07-04T02:45:34;8.07;;;4.47;;
69627;SDS011;56850;51.984;5.088;2022-07-04T02:48:01;8.30;;;4.45;;
69627;SDS011;56850;51.984;5.088;2022-07-04T02:50:29;8.40;;;4.03;;
69627;SDS011;56850;51.984;5.088;2022-07-04T02:52:56;7.30;;;3.90;;
69627;SDS011;56850;51.984;5.088;2022-07-04T02:55:23;10.73;;;4.23;;
69627;SDS011;56850;51.984;5.088;2022-07-04T02:57:50;8.73;;;3.72;;
69627;SDS011;56850;51.984;5.088;2022-07-04T03:00:17;8.32;;;4.20;;
69627;SDS011;56850;51.984;5.088;2022-07-04T03:02:44;8.50;;;4.97;;
69627;SDS011;56850;51.984;5.088;2022-07-04T03:05:11;8.07;;;4.95;;
69627;SDS011;56850;51.984;5.088;2022-07-04T03:07:38;6.07;;;4.28;;
69627;SDS011;56850;51.984;5.088;2022-07-04T03:10:05;7.75;;;4.45;;
69627;SDS011;56850;51.984;5.088;2022-07-04T03:12:32;6.45;;;4.28;;
69627;SDS011;56850;51.984;5.088;2022-07-04T03:14:59;12.30;;;4.50;;
69627;SDS011;56850;51.984;5.088;2022-07-04T03:17:26;7.03;;;4.22;;
69627;SDS011;56850;51.984;5.088;2022-07-04T03:19:56;5.75;;;4.63;;
69627;SDS011;56850;51.984;5.088;2022-07-04T03:22:24;9.55;;;4.82;;
69627;SDS011;56850;51.984;5.088;2022-07-04T03:24:52;10.93;;;4.53;;
69627;SDS011;56850;51.984;5.088;2022-07-04T03:27:18;7.38;;;4.60;;
69627;SDS011;56850;51.984;5.088;2022-07-04T03:29:45;7.78;;;5.22;;
69627;SDS011;56850;51.984;5.088;2022-07-04T03:32:12;12.10;;;5.37;;
69627;SDS011;56850;51.984;5.088;2022-07-04T03:34:39;8.13;;;4.68;;
69627;SDS011;56850;51.984;5.088;2022-07-04T03:37:06;10.05;;;4.88;;
69627;SDS011;56850;51.984;5.088;2022-07-04T03:39:33;9.65;;;5.05;;
69627;SDS011;56850;51.984;5.088;2022-07-04T03:42:00;8.15;;;4.53;;
69627;SDS011;56850;51.984;5.088;2022-07-04T03:44:27;8.97;;;5.03;;
69627;SDS011;56850;51.984;5.088;2022-07-04T03:46:54;11.18;;;5.25;;
69627;SDS011;56850;51.984;5.088;2022-07-04T03:49:21;13.27;;;5.20;;
69627;SDS011;56850;51.984;5.088;2022-07-04T03:51:48;12.38;;;5.20;;
69627;SDS011;56850;51.984;5.088;2022-07-04T03:54:15;11.00;;;5.35;;
69627;SDS011;56850;51.984;5.088;2022-07-04T03:56:43;8.60;;;4.50;;
69627;SDS011;56850;51.984;5.088;2022-07-04T03:59:10;8.52;;;4.72;;
69627;SDS011;56850;51.984;5.088;2022-07-04T04:01:38;7.82;;;4.93;;
69627;SDS011;56850;51.984;5.088;2022-07-04T04:04:06;9.27;;;4.60;;
69627;SDS011;56850;51.984;5.088;2022-07-04T04:06:51;10.43;;;5.10;;
69627;SDS011;56850;51.984;5.088;2022-07-04T04:09:19;7.37;;;5.13;;
69627;SDS011;56850;51.984;5.088;2022-07-04T04:11:47;8.05;;;4.80;;
69627;SDS011;56850;51.984;5.088;2022-07-04T04:14:14;9.13;;;5.55;;
69627;SDS011;56850;51.984;5.088;2022-07-04T04:16:40;11.35;;;4.53;;
69627;SDS011;56850;51.984;5.088;2022-07-04T04:19:09;10.65;;;4.97;;
69627;SDS011;56850;51.984;5.088;2022-07-04T04:21:37;7.60;;;4.40;;
69627;SDS011;56850;51.984;5.088;2022-07-04T04:24:04;6.93;;;4.35;;
69627;SDS011;56850;51.984;5.088;2022-07-04T04:26:32;11.25;;;4.97;;
69627;SDS011;56850;51.984;5.088;2022-07-04T04:28:59;9.25;;;4.70;;
69627;SDS011;56850;51.984;5.088;2022-07-04T04:31:26;8.00;;;4.72;;
69627;SDS011;56850;51.984;5.088;2022-07-04T04:33:53;9.93;;;5.07;;
69627;SDS011;56850;51.984;5.088;2022-07-04T04:36:20;7.75;;;4.80;;
69627;SDS011;56850;51.984;5.088;2022-07-04T04:38:47;9.35;;;5.13;;
69627;SDS011;56850;51.984;5.088;2022-07-04T04:41:14;8.98;;;4.28;;
69627;SDS011;56850;51.984;5.088;2022-07-04T04:43:42;9.25;;;4.60;;
69627;SDS011;56850;51.984;5.088;2022-07-04T04:46:09;8.47;;;4.53;;
69627;SDS011;56850;51.984;5.088;2022-07-04T04:48:36;13.50;;;5.07;;
69627;SDS011;56850;51.984;5.088;2022-07-04T04:51:03;9.70;;;4.65;;
69627;SDS011;56850;51.984;5.088;2022-07-04T04:53:34;10.90;;;4.25;;
69627;SDS011;56850;51.984;5.088;2022-07-04T04:56:03;7.05;;;4.32;;
69627;SDS011;56850;51.984;5.088;2022-07-04T04:58:30;6.60;;;4.23;;
69627;SDS011;56850;51.984;5.088;2022-07-04T05:00:57;10.82;;;4.45;;
69627;SDS011;56850;51.984;5.088;2022-07-04T05:03:44;8.70;;;4.18;;
69627;SDS011;56850;51.984;5.088;2022-07-04T05:06:11;8.27;;;4.28;;
69627;SDS011;56850;51.984;5.088;2022-07-04T05:08:38;12.05;;;4.78;;
69627;SDS011;56850;51.984;5.088;2022-07-04T05:11:05;8.53;;;4.63;;
69627;SDS011;56850;51.984;5.088;2022-07-04T05:13:32;13.98;;;4.80;;
69627;SDS011;56850;51.984;5.088;2022-07-04T05:15:59;6.88;;;3.70;;
69627;SDS011;56850;51.984;5.088;2022-07-04T05:18:26;9.40;;;4.93;;
69627;SDS011;56850;51.984;5.088;2022-07-04T05:20:53;12.57;;;4.60;;
69627;SDS011;56850;51.984;5.088;2022-07-04T05:23:21;8.03;;;4.10;;
69627;SDS011;56850;51.984;5.088;2022-07-04T05:25:51;9.15;;;4.10;;
69627;SDS011;56850;51.984;5.088;2022-07-04T05:28:17;8.88;;;4.07;;
69627;SDS011;56850;51.984;5.088;2022-07-04T05:30:44;7.32;;;3.83;;
69627;SDS011;56850;51.984;5.088;2022-07-04T05:33:11;9.93;;;4.18;;
69627;SDS011;56850;51.984;5.088;2022-07-04T05:35:38;13.73;;;4.00;;
69627;SDS011;56850;51.984;5.088;2022-07-04T05:38:05;8.40;;;3.90;;
69627;SDS011;56850;51.984;5.088;2022-07-04T05:40:32;10.02;;;4.00;;
69627;SDS011;56850;51.984;5.088;2022-07-04T05:42:59;12.00;;;4.40;;
69627;SDS011;56850;51.984;5.088;2022-07-04T05:45:26;9.82;;;3.92;;
69627;SDS011;56850;51.984;5.088;2022-07-04T05:47:53;12.73;;;4.50;;
69627;SDS011;56850;51.984;5.088;2022-07-04T05:50:20;8.73;;;4.20;;
69627;SDS011;56850;51.984;5.088;2022-07-04T05:52:47;10.13;;;4.35;;
69627;SDS011;56850;51.984;5.088;2022-07-04T05:55:14;11.50;;;4.55;;
69627;SDS011;56850;51.984;5.088;2022-07-04T05:57:41;8.73;;;4.00;;
69627;SDS011;56850;51.984;5.088;2022-07-04T06:00:10;6.23;;;3.63;;
69627;SDS011;56850;51.984;5.088;2022-07-04T06:02:38;12.63;;;3.90;;
69627;SDS011;56850;51.984;5.088;2022-07-04T06:05:05;9.52;;;4.10;;
69627;SDS011;56850;51.984;5.088;2022-07-04T06:07:32;10.50;;;4.32;;
69627;SDS011;56850;51.984;5.088;2022-07-04T06:09:59;10.88;;;4.38;;
69627;SDS011;56850;51.984;5.088;2022-07-04T06:12:27;12.17;;;4.47;;
69627;SDS011;56850;51.984;5.088;2022-07-04T06:14:54;8.60;;;4.35;;
69627;SDS011;56850;51.984;5.088;2022-07-04T06:17:21;12.60;;;4.40;;
69627;SDS011;56850;51.984;5.088;2022-07-04T06:19:48;12.57;;;4.55;;
69627;SDS011;56850;51.984;5.088;2022-07-04T06:22:15;12.20;;;4.38;;
69627;SDS011;56850;51.984;5.088;2022-07-04T06:24:50;9.93;;;4.20;;
69627;SDS011;56850;51.984;5.088;2022-07-04T06:27:16;9.68;;;4.65;;
69627;SDS011;56850;51.984;5.088;2022-07-04T06:29:43;7.88;;;4.00;;
69627;SDS011;56850;51.984;5.088;2022-07-04T06:32:11;9.90;;;4.85;;
69627;SDS011;56850;51.984;5.088;2022-07-04T06:34:38;12.77;;;4.75;;
69627;SDS011;56850;51.984;5.088;2022-07-04T06:37:24;8.87;;;4.53;;
69627;SDS011;56850;51.984;5.088;2022-07-04T06:39:51;10.05;;;4.60;;
69627;SDS011;56850;51.984;5.088;2022-07-04T06:42:18;10.52;;;4.78;;
69627;SDS011;56850;51.984;5.088;2022-07-04T06:44:47;9.57;;;4.32;;
69627;SDS011;56850;51.984;5.088;2022-07-04T06:47:14;13.32;;;4.45;;
69627;SDS011;56850;51.984;5.088;2022-07-04T06:49:41;8.77;;;4.55;;
69627;SDS011;56850;51.984;5.088;2022-07-04T06:52:09;13.15;;;4.72;;
69627;SDS011;56850;51.984;5.088;2022-07-04T06:54:35;12.80;;;5.05;;
69627;SDS011;56850;51.984;5.088;2022-07-04T06:57:03;7.55;;;4.40;;
69627;SDS011;56850;51.984;5.088;2022-07-04T06:59:53;12.30;;;4.55;;
69627;SDS011;56850;51.984;5.088;2022-07-04T07:02:20;9.35;;;4.22;;
69627;SDS011;56850;51.984;5.088;2022-07-04T07:04:47;9.02;;;4.55;;
69627;SDS011;56850;51.984;5.088;2022-07-04T07:07:15;7.90;;;4.68;;
69627;SDS011;56850;51.984;5.088;2022-07-04T07:09:41;10.80;;;4.30;;
69627;SDS011;56850;51.984;5.088;2022-07-04T07:12:09;9.90;;;4.32;;
69627;SDS011;56850;51.984;5.088;2022-07-04T07:14:36;14.15;;;4.25;;
69627;SDS011;56850;51.984;5.088;2022-07-04T07:17:03;10.60;;;4.60;;
69627;SDS011;56850;51.984;5.088;2022-07-04T07:19:30;9.90;;;3.90;;
69627;SDS011;56850;51.984;5.088;2022-07-04T07:21:57;8.63;;;3.78;;
69627;SDS011;56850;51.984;5.088;2022-07-04T07:24:24;10.13;;;3.60;;
69627;SDS011;56850;51.984;5.088;2022-07-04T07:26:52;11.38;;;3.75;;
69627;SDS011;56850;51.984;5.088;2022-07-04T07:29:19;11.82;;;4.20;;
69627;SDS011;56850;51.984;5.088;2022-07-04T07:31:46;13.50;;;3.85;;
69627;SDS011;56850;51.984;5.088;2022-07-04T07:34:13;9.25;;;4.00;;
69627;SDS011;56850;51.984;5.088;2022-07-04T07:36:40;10.77;;;3.45;;
69627;SDS011;56850;51.984;5.088;2022-07-04T07:39:07;12.13;;;4.13;;
69627;SDS011;56850;51.984;5.088;2022-07-04T07:41:34;7.15;;;3.63;;
69627;SDS011;56850;51.984;5.088;2022-07-04T07:44:05;11.55;;;4.00;;
69627;SDS011;56850;51.984;5.088;2022-07-04T07:46:32;6.43;;;3.10;;
69627;SDS011;56850;51.984;5.088;2022-07-04T07:48:59;6.72;;;3.13;;
69627;SDS011;56850;51.984;5.088;2022-07-04T07:51:25;5.10;;;3.00;;
69627;SDS011;56850;51.984;5.088;2022-07-04T07:53:53;4.40;;;2.65;;
69627;SDS011;56850;51.984;5.088;2022-07-04T07:56:40;5.32;;;2.60;;
69627;SDS011;56850;51.984;5.088;2022-07-04T07:59:07;6.20;;;2.38;;
69627;SDS011;56850;51.984;5.088;2022-07-04T08:01:33;4.22;;;2.50;;
69627;SDS011;56850;51.984;5.088;2022-07-04T08:04:00;6.85;;;2.58;;
69627;SDS011;56850;51.984;5.088;2022-07-04T08:06:48;7.45;;;2.70;;
69627;SDS011;56850;51.984;5.088;2022-07-04T08:09:35;6.03;;;2.20;;
69627;SDS011;56850;51.984;5.088;2022-07-04T08:12:03;11.07;;;2.28;;
69627;SDS011;56850;51.984;5.088;2022-07-04T08:14:31;4.15;;;2.40;;
69627;SDS011;56850;51.984;5.088;2022-07-04T08:16:59;4.75;;;2.58;;
69627;SDS011;56850;51.984;5.088;2022-07-04T08:19:27;4.70;;;2.30;;
69627;SDS011;56850;51.984;5.088;2022-07-04T08:21:54;4.88;;;2.33;;
69627;SDS011;56850;51.984;5.088;2022-07-04T08:24:40;4.70;;;2.10;;
69627;SDS011;56850;51.984;5.088;2022-07-04T08:27:08;4.22;;;2.08;;
69627;SDS011;56850;51.984;5.088;2022-07-04T08:29:35;6.35;;;2.50;;
69627;SDS011;56850;51.984;5.088;2022-07-04T08:32:02;7.32;;;2.63;;
69627;SDS011;56850;51.984;5.088;2022-07-04T08:34:30;6.63;;;2.25;;
69627;SDS011;56850;51.984;5.088;2022-07-04T08:36:57;4.32;;;1.88;;
69627;SDS011;56850;51.984;5.088;2022-07-04T08:39:23;10.15;;;2.25;;
69627;SDS011;56850;51.984;5.088;2022-07-04T08:41:52;5.85;;;2.15;;
69627;SDS011;56850;51.984;5.088;2022-07-04T08:44:21;6.50;;;2.42;;
69627;SDS011;56850;51.984;5.088;2022-07-04T08:46:51;4.28;;;2.20;;
69627;SDS011;56850;51.984;5.088;2022-07-04T08:49:21;5.45;;;2.28;;
69627;SDS011;56850;51.984;5.088;2022-07-04T08:51:54;4.13;;;2.20;;
69627;SDS011;56850;51.984;5.088;2022-07-04T08:54:31;5.45;;;2.38;;
69627;SDS011;56850;51.984;5.088;2022-07-04T08:57:17;6.80;;;2.58;;
69627;SDS011;56850;51.984;5.088;2022-07-04T09:00:04;5.70;;;2.45;;
69627;SDS011;56850;51.984;5.088;2022-07-04T09:02:33;8.45;;;2.40;;
69627;SDS011;56850;51.984;5.088;2022-07-04T09:05:00;5.40;;;2.67;;
69627;SDS011;56850;51.984;5.088;2022-07-04T09:07:32;7.20;;;2.95;;
69627;SDS011;56850;51.984;5.088;2022-07-04T09:09:59;7.05;;;2.85;;
69627;SDS011;56850;51.984;5.088;2022-07-04T09:12:32;5.70;;;2.90;;
69627;SDS011;56850;51.984;5.088;2022-07-04T09:15:19;9.88;;;3.17;;
69627;SDS011;56850;51.984;5.088;2022-07-04T09:17:46;6.25;;;3.35;;
69627;SDS011;56850;51.984;5.088;2022-07-04T09:20:20;6.38;;;3.53;;
69627;SDS011;56850;51.984;5.088;2022-07-04T09:22:49;9.82;;;4.30;;
69627;SDS011;56850;51.984;5.088;2022-07-04T09:25:17;7.32;;;4.28;;
69627;SDS011;56850;51.984;5.088;2022-07-04T09:27:45;4.97;;;3.70;;
69627;SDS011;56850;51.984;5.088;2022-07-04T09:30:16;8.43;;;4.30;;
69627;SDS011;56850;51.984;5.088;2022-07-04T09:32:54;7.32;;;4.40;;
69627;SDS011;56850;51.984;5.088;2022-07-04T09:35:31;9.70;;;4.35;;
69627;SDS011;56850;51.984;5.088;2022-07-04T09:38:00;5.80;;;4.13;;
69627;SDS011;56850;51.984;5.088;2022-07-04T09:40:38;9.02;;;4.28;;
69627;SDS011;56850;51.984;5.088;2022-07-04T09:43:25;6.93;;;3.38;;
69627;SDS011;56850;51.984;5.088;2022-07-04T09:48:22;11.15;;;4.07;;
69627;SDS011;56850;51.984;5.088;2022-07-04T09:50:50;8.18;;;4.00;;
69627;SDS011;56850;51.984;5.088;2022-07-04T09:53:17;6.95;;;3.25;;
69627;SDS011;56850;51.984;5.088;2022-07-04T09:55:44;5.03;;;3.10;;
69627;SDS011;56850;51.984;5.088;2022-07-04T09:58:12;5.20;;;2.60;;
69627;SDS011;56850;51.984;5.088;2022-07-04T10:00:42;4.45;;;2.60;;
69627;SDS011;56850;51.984;5.088;2022-07-04T10:06:01;5.00;;;2.60;;
69627;SDS011;56850;51.984;5.088;2022-07-04T10:08:33;4.55;;;2.30;;
69627;SDS011;56850;51.984;5.088;2022-07-04T10:11:01;4.70;;;2.33;;
69627;SDS011;56850;51.984;5.088;2022-07-04T10:13:36;6.60;;;2.45;;
69627;SDS011;56850;51.984;5.088;2022-07-04T10:16:05;8.45;;;2.42;;
69627;SDS011;56850;51.984;5.088;2022-07-04T10:18:34;5.20;;;2.63;;
69627;SDS011;56850;51.984;5.088;2022-07-04T10:21:01;3.85;;;2.45;;
69627;SDS011;56850;51.984;5.088;2022-07-04T10:23:31;4.57;;;2.20;;
69627;SDS011;56850;51.984;5.088;2022-07-04T10:26:00;5.30;;;2.10;;
69627;SDS011;56850;51.984;5.088;2022-07-04T10:28:30;4.80;;;1.80;;
69627;SDS011;56850;51.984;5.088;2022-07-04T10:30:59;2.97;;;2.30;;
69627;SDS011;56850;51.984;5.088;2022-07-04T10:33:27;3.38;;;2.10;;
69627;SDS011;56850;51.984;5.088;2022-07-04T10:35:56;3.90;;;2.10;;
69627;SDS011;56850;51.984;5.088;2022-07-04T10:38:34;4.13;;;1.90;;
69627;SDS011;56850;51.984;5.088;2022-07-04T10:41:12;3.60;;;2.10;;
69627;SDS011;56850;51.984;5.088;2022-07-04T10:46:46;4.57;;;2.40;;
69627;SDS011;56850;51.984;5.088;2022-07-04T10:51:45;8.68;;;2.17;;
69627;SDS011;56850;51.984;5.088;2022-07-04T11:04:54;3.53;;;1.80;;
69627;SDS011;56850;51.984;5.088;2022-07-04T11:07:23;6.35;;;2.00;;
69627;SDS011;56850;51.984;5.088;2022-07-04T11:20:26;3.22;;;1.60;;
69627;SDS011;56850;51.984;5.088;2022-07-04T11:23:05;2.80;;;1.70;;
69627;SDS011;56850;51.984;5.088;2022-07-04T11:25:36;4.18;;;1.50;;
69627;SDS011;56850;51.984;5.088;2022-07-04T11:28:17;3.03;;;1.48;;
69627;SDS011;56850;51.984;5.088;2022-07-04T11:31:08;4.45;;;1.80;;
69627;SDS011;56850;51.984;5.088;2022-07-04T11:33:36;3.60;;;1.70;;
69627;SDS011;56850;51.984;5.088;2022-07-04T11:41:15;2.55;;;1.63;;
69627;SDS011;56850;51.984;5.088;2022-07-04T11:44:02;4.70;;;1.45;;
69627;SDS011;56850;51.984;5.088;2022-07-04T11:46:50;3.65;;;1.60;;
69627;SDS011;56850;51.984;5.088;2022-07-04T11:49:27;3.15;;;1.50;;
69627;SDS011;56850;51.984;5.088;2022-07-04T11:51:54;3.15;;;1.77;;
69627;SDS011;56850;51.984;5.088;2022-07-04T11:54:21;3.75;;;1.65;;
69627;SDS011;56850;51.984;5.088;2022-07-04T11:57:08;3.17;;;1.73;;
69627;SDS011;56850;51.984;5.088;2022-07-04T11:59:35;4.60;;;1.85;;
69627;SDS011;56850;51.984;5.088;2022-07-04T12:02:09;1.92;;;1.50;;
69627;SDS011;56850;51.984;5.088;2022-07-04T12:04:39;2.17;;;1.40;;
69627;SDS011;56850;51.984;5.088;2022-07-04T12:07:11;4.53;;;1.60;;
69627;SDS011;56850;51.984;5.088;2022-07-04T12:09:40;2.40;;;1.55;;
69627;SDS011;56850;51.984;5.088;2022-07-04T12:12:08;3.00;;;1.73;;
69627;SDS011;56850;51.984;5.088;2022-07-04T12:14:35;4.30;;;1.67;;
69627;SDS011;56850;51.984;5.088;2022-07-04T12:17:10;2.97;;;1.50;;
69627;SDS011;56850;51.984;5.088;2022-07-04T12:22:34;3.00;;;1.60;;
69627;SDS011;56850;51.984;5.088;2022-07-04T12:25:07;3.05;;;1.50;;
69627;SDS011;56850;51.984;5.088;2022-07-04T12:27:51;2.70;;;1.63;;
69627;SDS011;56850;51.984;5.088;2022-07-04T12:30:19;2.75;;;1.50;;
69627;SDS011;56850;51.984;5.088;2022-07-04T12:32:56;2.10;;;1.48;;
69627;SDS011;56850;51.984;5.088;2022-07-04T12:35:34;2.50;;;1.33;;
69627;SDS011;56850;51.984;5.088;2022-07-04T12:38:02;4.10;;;1.80;;
69627;SDS011;56850;51.984;5.088;2022-07-04T12:43:25;2.80;;;1.50;;
69627;SDS011;56850;51.984;5.088;2022-07-04T12:46:08;3.00;;;1.80;;
69627;SDS011;56850;51.984;5.088;2022-07-04T12:48:38;4.47;;;1.37;;
69627;SDS011;56850;51.984;5.088;2022-07-04T12:53:41;2.63;;;1.38;;
69627;SDS011;56850;51.984;5.088;2022-07-04T12:56:11;5.03;;;1.35;;
69627;SDS011;56850;51.984;5.088;2022-07-04T12:59:02;2.40;;;1.70;;
69627;SDS011;56850;51.984;5.088;2022-07-04T13:01:39;3.80;;;1.40;;
69627;SDS011;56850;51.984;5.088;2022-07-04T13:04:08;2.20;;;1.55;;
69627;SDS011;56850;51.984;5.088;2022-07-04T13:06:35;2.63;;;1.33;;
69627;SDS011;56850;51.984;5.088;2022-07-04T13:09:03;2.97;;;1.48;;
69627;SDS011;56850;51.984;5.088;2022-07-04T13:11:34;2.83;;;1.52;;
69627;SDS011;56850;51.984;5.088;2022-07-04T13:14:20;3.10;;;1.83;;
69627;SDS011;56850;51.984;5.088;2022-07-04T13:16:47;4.70;;;1.40;;
69627;SDS011;56850;51.984;5.088;2022-07-04T13:19:14;2.83;;;1.50;;
69627;SDS011;56850;51.984;5.088;2022-07-04T13:21:43;4.15;;;1.50;;
69627;SDS011;56850;51.984;5.088;2022-07-04T13:24:11;6.20;;;1.45;;
69627;SDS011;56850;51.984;5.088;2022-07-04T13:26:39;4.90;;;1.50;;
69627;SDS011;56850;51.984;5.088;2022-07-04T13:29:09;3.60;;;1.70;;
69627;SDS011;56850;51.984;5.088;2022-07-04T13:31:38;4.85;;;1.60;;
69627;SDS011;56850;51.984;5.088;2022-07-04T13:34:08;2.58;;;1.42;;
69627;SDS011;56850;51.984;5.088;2022-07-04T13:36:35;4.28;;;1.63;;
69627;SDS011;56850;51.984;5.088;2022-07-04T13:39:02;5.47;;;1.73;;
69627;SDS011;56850;51.984;5.088;2022-07-04T13:41:35;2.83;;;1.30;;
69627;SDS011;56850;51.984;5.088;2022-07-04T13:44:02;3.38;;;1.50;;
69627;SDS011;56850;51.984;5.088;2022-07-04T13:46:43;2.25;;;1.23;;
69627;SDS011;56850;51.984;5.088;2022-07-04T13:49:10;2.92;;;1.55;;
69627;SDS011;56850;51.984;5.088;2022-07-04T13:51:42;3.40;;;1.50;;
69627;SDS011;56850;51.984;5.088;2022-07-04T13:54:09;6.60;;;1.85;;
69627;SDS011;56850;51.984;5.088;2022-07-04T13:56:36;3.38;;;1.38;;
69627;SDS011;56850;51.984;5.088;2022-07-04T13:59:03;3.40;;;1.52;;
69627;SDS011;56850;51.984;5.088;2022-07-04T14:01:32;7.32;;;1.73;;
69627;SDS011;56850;51.984;5.088;2022-07-04T14:03:59;3.10;;;1.47;;
69627;SDS011;56850;51.984;5.088;2022-07-04T14:06:27;2.70;;;1.48;;
69627;SDS011;56850;51.984;5.088;2022-07-04T14:08:54;3.20;;;1.67;;
69627;SDS011;56850;51.984;5.088;2022-07-04T14:11:21;2.75;;;1.60;;
69627;SDS011;56850;51.984;5.088;2022-07-04T14:13:48;2.53;;;1.35;;
69627;SDS011;56850;51.984;5.088;2022-07-04T14:16:15;3.17;;;1.40;;
69627;SDS011;56850;51.984;5.088;2022-07-04T14:18:42;2.90;;;1.48;;
69627;SDS011;56850;51.984;5.088;2022-07-04T14:21:09;1.98;;;1.50;;
69627;SDS011;56850;51.984;5.088;2022-07-04T14:23:36;3.28;;;1.35;;
69627;SDS011;56850;51.984;5.088;2022-07-04T14:26:07;3.97;;;1.90;;
69627;SDS011;56850;51.984;5.088;2022-07-04T14:28:38;5.07;;;1.43;;
69627;SDS011;56850;51.984;5.088;2022-07-04T14:31:06;3.53;;;1.30;;
69627;SDS011;56850;51.984;5.088;2022-07-04T14:33:33;3.25;;;1.45;;
69627;SDS011;56850;51.984;5.088;2022-07-04T14:36:02;3.60;;;1.60;;
69627;SDS011;56850;51.984;5.088;2022-07-04T14:38:32;3.85;;;1.80;;
69627;SDS011;56850;51.984;5.088;2022-07-04T14:41:00;3.53;;;1.63;;
69627;SDS011;56850;51.984;5.088;2022-07-04T14:43:40;2.80;;;1.60;;
69627;SDS011;56850;51.984;5.088;2022-07-04T14:46:10;2.95;;;1.90;;
69627;SDS011;56850;51.984;5.088;2022-07-04T14:48:38;2.13;;;1.60;;
69627;SDS011;56850;51.984;5.088;2022-07-04T14:51:08;1.67;;;1.52;;
69627;SDS011;56850;51.984;5.088;2022-07-04T14:53:35;3.83;;;1.97;;
69627;SDS011;56850;51.984;5.088;2022-07-04T14:56:04;3.72;;;1.65;;
69627;SDS011;56850;51.984;5.088;2022-07-04T14:58:33;2.40;;;1.40;;
69627;SDS011;56850;51.984;5.088;2022-07-04T15:01:00;3.03;;;1.90;;
69627;SDS011;56850;51.984;5.088;2022-07-04T15:03:27;3.40;;;1.70;;
69627;SDS011;56850;51.984;5.088;2022-07-04T15:05:54;4.00;;;1.60;;
69627;SDS011;56850;51.984;5.088;2022-07-04T15:08:21;2.58;;;1.30;;
69627;SDS011;56850;51.984;5.088;2022-07-04T15:10:48;3.17;;;1.55;;
69627;SDS011;56850;51.984;5.088;2022-07-04T15:13:35;3.15;;;1.70;;
69627;SDS011;56850;51.984;5.088;2022-07-04T15:16:01;3.13;;;1.83;;
69627;SDS011;56850;51.984;5.088;2022-07-04T15:18:47;3.50;;;1.40;;
69627;SDS011;56850;51.984;5.088;2022-07-04T15:21:14;4.10;;;1.70;;
69627;SDS011;56850;51.984;5.088;2022-07-04T15:24:00;2.13;;;1.60;;
69627;SDS011;56850;51.984;5.088;2022-07-04T15:26:41;2.17;;;1.52;;
69627;SDS011;56850;51.984;5.088;2022-07-04T15:29:15;3.10;;;1.80;;
69627;SDS011;56850;51.984;5.088;2022-07-04T15:31:44;2.43;;;1.70;;
69627;SDS011;56850;51.984;5.088;2022-07-04T15:34:12;2.28;;;1.48;;
69627;SDS011;56850;51.984;5.088;2022-07-04T15:36:39;2.78;;;1.75;;
69627;SDS011;56850;51.984;5.088;2022-07-04T15:39:08;4.63;;;1.92;;
69627;SDS011;56850;51.984;5.088;2022-07-04T15:41:36;2.72;;;1.50;;
69627;SDS011;56850;51.984;5.088;2022-07-04T15:44:04;3.30;;;1.90;;